Time;durP1;ratioP1;P1;durP2;ratioP2;P2;SDS_P1;SDS_P2;PMS_P1;PMS_P2;Temp;Humidity;BMP_temperature;BMP_pressure;BME280_temperature;BME280_humidity;BME280_pressure;Samples;Min_cycle;Max_cycle;Signal;HPM_P1;HPM_P2
2022/03/17 00:00:26;;;;;;;23.07;16.60;;;;;;;8.17;90.04;95473.78;5053814;28;20442;-80
2022/03/17 00:02:53;;;;;;;25.03;17.20;;;;;;;8.17;89.67;95473.78;5053855;28;20449;-78
2022/03/17 00:05:20;;;;;;;23.97;17.30;;;;;;;8.17;89.20;95479.00;5054813;28;20438;-80
2022/03/17 00:07:47;;;;;;;29.30;19.50;;;;;;;8.19;89.23;95477.97;5054813;28;20778;-79
2022/03/17 00:10:16;;;;;;;22.60;17.33;;;;;;;8.18;89.85;95465.00;5054987;28;20449;-80
2022/03/17 00:12:46;;;;;;;29.37;20.30;;;;;;;8.19;89.83;95469.28;5054574;28;20491;-80
2022/03/17 00:15:13;;;;;;;36.20;22.47;;;;;;;8.18;90.26;95475.44;5055113;28;20454;-79
2022/03/17 00:17:41;;;;;;;32.57;21.50;;;;;;;8.16;90.26;95475.56;5019497;28;20450;-79
2022/03/17 00:20:10;;;;;;;36.73;22.67;;;;;;;8.15;90.49;95475.66;5054704;28;20462;-79
2022/03/17 00:22:38;;;;;;;28.67;20.53;;;;;;;8.14;90.01;95476.59;5054352;28;20473;-80
2022/03/17 00:28:27;;;;;;;17.77;14.80;;;;;;;7.70;92.25;95478.53;5053421;28;20517;-80
2022/03/17 00:30:54;;;;;;;24.73;18.00;;;;;;;7.75;93.10;95476.44;5054790;28;20476;-80
2022/03/17 00:33:21;;;;;;;26.70;17.83;;;;;;;7.82;92.87;95483.91;5054328;28;20445;-79
2022/03/17 00:35:48;;;;;;;26.43;19.67;;;;;;;7.79;92.59;95477.09;5054436;28;20449;-79
2022/03/17 00:38:19;;;;;;;28.30;19.87;;;;;;;7.87;93.28;95476.63;5054461;28;20448;-79
2022/03/17 00:40:47;;;;;;;25.00;19.80;;;;;;;7.87;93.15;95471.38;5055054;28;20438;-79
2022/03/17 00:43:16;;;;;;;24.03;19.30;;;;;;;7.94;92.13;95480.50;5053966;28;20466;-79
2022/03/17 00:45:47;;;;;;;31.37;19.60;;;;;;;7.95;92.63;95485.63;5054044;28;20529;-80
2022/03/17 00:48:14;;;;;;;29.97;20.00;;;;;;;7.98;93.03;95493.25;5054364;28;20483;-79
2022/03/17 00:50:41;;;;;;;30.43;20.50;;;;;;;8.01;92.65;95493.06;5053835;28;20448;-79
2022/03/17 00:53:08;;;;;;;30.67;22.37;;;;;;;7.97;92.51;95490.75;5054085;28;20873;-79
2022/03/17 00:55:35;;;;;;;30.60;22.60;;;;;;;7.93;93.16;95487.50;5053835;28;20442;-80
2022/03/17 00:58:02;;;;;;;33.53;25.30;;;;;;;7.92;93.12;95498.88;5053996;28;20810;-80
2022/03/17 01:00:29;;;;;;;39.77;26.50;;;;;;;7.86;93.36;95501.91;5054521;28;20454;-80
2022/03/17 01:02:58;;;;;;;39.63;26.50;;;;;;;7.81;94.12;95498.75;5053841;28;20477;-80
2022/03/17 01:05:25;;;;;;;37.87;27.80;;;;;;;7.73;94.61;95514.06;5052905;28;20507;-79
2022/03/17 01:07:54;;;;;;;39.13;26.13;;;;;;;7.29;96.53;95520.31;5035200;28;20449;-80
2022/03/17 01:10:21;;;;;;;34.20;24.43;;;;;;;6.92;99.96;95505.22;5053637;28;20437;-79
2022/03/17 01:12:50;;;;;;;39.50;25.17;;;;;;;6.82;100.00;95515.38;5053449;28;21295;-79
2022/03/17 01:15:18;;;;;;;30.23;22.77;;;;;;;6.67;100.00;95521.50;5053887;28;20891;-79
2022/03/17 01:17:45;;;;;;;33.10;23.17;;;;;;;6.48;100.00;95516.53;5053632;28;20430;-80
2022/03/17 01:20:14;;;;;;;34.40;22.70;;;;;;;6.42;100.00;95522.94;5053471;28;20528;-79
2022/03/17 01:22:41;;;;;;;33.77;21.90;;;;;;;6.43;100.00;95529.84;5053452;28;20472;-79
2022/03/17 01:25:09;;;;;;;29.90;21.00;;;;;;;6.39;100.00;95535.31;5053802;28;20437;-79
2022/03/17 01:27:36;;;;;;;31.23;21.60;;;;;;;6.46;100.00;95531.44;5053708;28;20434;-79
2022/03/17 01:30:07;;;;;;;24.33;18.27;;;;;;;6.41;100.00;95536.06;5053900;28;20796;-79
2022/03/17 01:32:34;;;;;;;21.53;15.87;;;;;;;6.45;100.00;95533.19;5053523;28;20491;-80
2022/03/17 01:35:01;;;;;;;17.20;13.43;;;;;;;6.39;100.00;95538.78;5053835;28;20430;-80
2022/03/17 01:37:30;;;;;;;13.13;9.23;;;;;;;6.42;100.00;95538.59;5053463;28;20438;-80
2022/03/17 01:39:57;;;;;;;9.60;7.87;;;;;;;6.53;100.00;95543.16;5053209;28;20939;-79
2022/03/17 01:49:07;;;;;;;13.80;10.13;;;;;;;6.69;99.85;95546.56;5051905;28;20516;-79
2022/03/17 01:51:34;;;;;;;11.93;10.00;;;;;;;6.84;99.93;95545.66;5053010;28;20481;-79
2022/03/17 01:54:02;;;;;;;13.53;10.07;;;;;;;6.98;98.98;95555.28;5053085;28;20438;-80
2022/03/17 01:56:29;;;;;;;15.70;11.80;;;;;;;7.12;98.12;95562.25;5053010;28;20477;-79
2022/03/17 01:58:56;;;;;;;14.67;11.67;;;;;;;7.22;97.89;95565.97;5053429;28;20442;-79
2022/03/17 02:01:23;;;;;;;14.73;10.63;;;;;;;7.31;98.08;95570.66;5053251;28;20929;-79
2022/03/17 02:03:52;;;;;;;10.23;9.23;;;;;;;7.35;96.88;95572.13;5053707;28;20803;-79
2022/03/17 02:06:19;;;;;;;9.03;7.90;;;;;;;7.33;96.34;95566.19;5053251;28;20805;-81
2022/03/17 02:08:46;;;;;;;10.97;9.07;;;;;;;7.30;96.21;95561.16;5053109;28;20517;-79
2022/03/17 02:14:01;;;;;;;8.20;7.27;;;;;;;7.35;96.60;95566.06;5053220;28;21338;-79
2022/03/17 02:16:30;;;;;;;9.37;7.07;;;;;;;7.37;95.82;95572.88;5053309;28;20446;-79
2022/03/17 02:18:58;;;;;;;9.53;7.40;;;;;;;7.44;96.02;95571.56;5053341;28;20761;-79
2022/03/17 02:21:24;;;;;;;10.50;7.43;;;;;;;7.41;95.99;95574.38;5053289;28;20521;-79
2022/03/17 02:26:38;;;;;;;9.47;6.97;;;;;;;7.49;94.58;95578.28;4991705;28;20832;-80
2022/03/17 02:29:05;;;;;;;8.43;7.53;;;;;;;7.54;94.18;95574.47;4991737;28;20463;-79
2022/03/17 02:31:32;;;;;;;7.77;6.97;;;;;;;7.59;93.75;95571.56;4991480;28;20486;-79
2022/03/17 02:33:59;;;;;;;12.17;7.60;;;;;;;7.61;93.18;95561.88;4991819;28;20903;-79
2022/03/17 02:36:26;;;;;;;8.43;7.23;;;;;;;7.63;92.71;95571.28;4991509;28;20468;-80
2022/03/17 02:45:38;;;;;;;10.60;7.90;;;;;;;7.69;93.35;95570.03;4994224;28;20854;-79
2022/03/17 02:48:06;;;;;;;8.90;8.00;;;;;;;7.68;92.76;95570.97;4995361;28;20872;-79
2022/03/17 02:50:34;;;;;;;9.20;7.03;;;;;;;7.61;92.96;95572.31;4995097;28;20463;-79
2022/03/17 02:53:05;;;;;;;7.90;7.07;;;;;;;7.64;92.65;95577.34;4995075;28;20476;-79
2022/03/17 02:55:32;;;;;;;7.10;6.40;;;;;;;7.63;93.00;95579.09;4994883;28;20882;-79
2022/03/17 02:57:59;;;;;;;7.30;6.60;;;;;;;7.59;93.16;95584.63;4994725;28;20468;-79
2022/03/17 03:00:26;;;;;;;7.77;7.00;;;;;;;7.57;93.64;95594.34;4994892;28;20524;-79
2022/03/17 03:02:54;;;;;;;7.20;5.87;;;;;;;7.41;93.89;95587.41;5002151;28;20455;-79
2022/03/17 03:05:22;;;;;;;7.90;6.77;;;;;;;7.32;94.41;95593.22;5056269;28;20445;-79
2022/03/17 03:07:49;;;;;;;7.83;6.20;;;;;;;7.30;94.04;95591.63;5055985;28;20442;-78
2022/03/17 03:10:16;;;;;;;7.90;6.50;;;;;;;7.30;94.47;95596.84;5055870;28;20434;-80
2022/03/17 03:12:43;;;;;;;6.63;5.80;;;;;;;7.23;93.43;95599.00;5055769;28;20482;-79
2022/03/17 03:15:10;;;;;;;7.17;6.57;;;;;;;7.25;94.04;95596.28;5056077;28;20446;-79
2022/03/17 03:17:37;;;;;;;5.23;4.77;;;;;;;7.26;94.23;95596.19;5055811;28;20495;-79
2022/03/17 03:20:06;;;;;;;5.33;4.83;;;;;;;7.17;93.34;95599.34;5055766;28;20449;-79
2022/03/17 03:22:39;;;;;;;6.63;5.93;;;;;;;7.14;93.86;95602.16;5055921;28;20477;-79
2022/03/17 03:25:07;;;;;;;11.50;9.30;;;;;;;6.81;93.62;95604.97;5055728;28;20996;-79
2022/03/17 03:27:34;;;;;;;12.57;7.70;;;;;;;6.77;94.01;95608.69;5055589;28;20483;-79
2022/03/17 03:30:02;;;;;;;13.63;8.50;;;;;;;6.69;93.67;95605.72;5055790;28;20806;-79
2022/03/17 03:32:29;;;;;;;9.77;8.43;;;;;;;6.56;94.70;95604.72;5055763;28;20478;-79
2022/03/17 03:45:06;;;;;;;12.43;9.63;;;;;;;6.27;92.76;95622.03;5055415;28;20409;-79
2022/03/17 03:47:33;;;;;;;14.90;11.20;;;;;;;6.15;93.44;95616.59;5037141;28;20774;-79
2022/03/17 03:50:00;;;;;;;15.90;10.80;;;;;;;6.12;93.33;95613.31;5037051;28;20445;-79
2022/03/17 03:52:27;;;;;;;16.23;13.73;;;;;;;6.10;94.17;95620.38;5053944;28;20482;-80
2022/03/17 03:54:54;;;;;;;15.07;11.40;;;;;;;6.19;93.94;95625.06;5055253;28;20438;-79
2022/03/17 03:57:21;;;;;;;15.13;10.47;;;;;;;6.26;93.70;95626.38;5055499;28;20430;-78
2022/03/17 03:59:47;;;;;;;16.63;12.77;;;;;;;6.31;93.70;95634.78;5055043;28;20916;-80
2022/03/17 04:02:25;;;;;;;21.63;12.80;;;;;;;6.41;93.96;95632.53;5054834;28;20912;-79
2022/03/17 04:04:52;;;;;;;15.23;12.60;;;;;;;6.42;92.74;95639.41;5055271;28;20425;-79
2022/03/17 04:07:19;;;;;;;16.00;12.33;;;;;;;6.37;93.37;95644.88;5036871;28;20471;-80
2022/03/17 04:09:46;;;;;;;18.40;13.30;;;;;;;6.37;92.63;95654.47;5055360;28;20434;-79
2022/03/17 04:12:14;;;;;;;18.83;12.77;;;;;;;6.27;93.10;95648.91;5055074;28;20983;-79
2022/03/17 04:14:41;;;;;;;22.40;14.37;;;;;;;6.18;92.92;95657.25;5054585;28;20936;-79
2022/03/17 04:17:09;;;;;;;23.23;16.23;;;;;;;6.05;94.15;95645.81;5020419;28;20428;-79
2022/03/17 04:19:38;;;;;;;20.93;15.53;;;;;;;6.16;93.69;95661.72;5054640;28;20442;-79
2022/03/17 04:22:05;;;;;;;22.57;14.83;;;;;;;6.03;93.59;95650.28;5054925;28;20473;-79
2022/03/17 04:34:38;;;;;;;22.17;14.10;;;;;;;5.87;95.56;95689.31;5053379;28;20479;-79
2022/03/17 04:37:05;;;;;;;18.63;11.50;;;;;;;5.87;95.93;95694.53;5054648;28;20446;-78
2022/03/17 04:39:32;;;;;;;20.43;15.40;;;;;;;5.89;95.34;95695.28;5054482;28;20444;-78
2022/03/17 04:41:59;;;;;;;18.50;14.50;;;;;;;5.80;95.62;95690.56;5054226;28;20434;-80
2022/03/17 04:44:26;;;;;;;18.83;15.10;;;;;;;5.77;95.45;95695.91;5054555;28;20438;-78
2022/03/17 04:46:53;;;;;;;16.50;12.70;;;;;;;5.78;95.06;95702.81;5053961;28;20808;-79
2022/03/17 04:49:20;;;;;;;17.77;13.00;;;;;;;5.81;95.07;95702.66;5053291;28;20434;-80
2022/03/17 04:51:48;;;;;;;20.03;15.00;;;;;;;5.66;95.38;95704.31;5053378;28;20450;-79
2022/03/17 04:54:15;;;;;;;19.33;12.63;;;;;;;5.57;95.33;95697.81;5053239;28;20450;-80
2022/03/17 04:56:42;;;;;;;14.73;11.97;;;;;;;5.46;95.69;95704.50;5053008;28;20937;-79
2022/03/17 04:59:09;;;;;;;16.30;13.23;;;;;;;5.46;96.39;95712.28;5053823;28;20812;-79
2022/03/17 05:01:36;;;;;;;17.47;12.77;;;;;;;5.33;97.10;95717.31;5053105;28;20532;-78
2022/03/17 05:04:03;;;;;;;15.90;12.27;;;;;;;5.25;96.61;95715.09;5018780;28;20457;-79
2022/03/17 05:06:29;;;;;;;16.27;12.43;;;;;;;5.12;97.24;95714.03;5014793;28;21181;-79
2022/03/17 05:08:59;;;;;;;17.77;12.77;;;;;;;5.13;97.45;95712.25;5033642;28;20434;-78
2022/03/17 05:11:26;;;;;;;16.90;12.50;;;;;;;5.28;97.21;95719.31;5033553;28;20425;-79
2022/03/17 05:13:53;;;;;;;16.27;12.70;;;;;;;5.38;96.89;95719.66;5033810;28;20474;-78
2022/03/17 05:16:20;;;;;;;24.27;15.30;;;;;;;5.42;96.37;95731.59;5033750;28;20432;-80
2022/03/17 05:18:47;;;;;;;20.70;13.53;;;;;;;5.47;96.72;95727.84;5033830;28;20446;-78
2022/03/17 05:21:14;;;;;;;20.50;14.57;;;;;;;5.58;97.42;95728.13;5033969;28;20842;-79
2022/03/17 05:23:41;;;;;;;18.47;13.20;;;;;;;5.58;95.83;95732.50;5034465;28;20479;-79
2022/03/17 05:26:09;;;;;;;18.30;13.50;;;;;;;5.55;95.19;95732.66;5033798;28;20445;-79
2022/03/17 05:28:36;;;;;;;14.77;11.00;;;;;;;5.47;95.43;95742.63;5033645;28;20458;-79
2022/03/17 05:31:03;;;;;;;16.10;12.43;;;;;;;5.42;95.44;95742.84;5033641;28;20458;-79
2022/03/17 05:33:30;;;;;;;16.07;10.80;;;;;;;5.32;95.51;95740.81;5032952;28;20490;-79
2022/03/17 05:35:57;;;;;;;18.20;11.80;;;;;;;5.20;95.53;95744.84;5033567;28;20495;-79
2022/03/17 05:38:24;;;;;;;14.47;11.83;;;;;;;5.20;96.96;95745.72;5033138;28;20447;-80
2022/03/17 05:40:52;;;;;;;16.90;11.37;;;;;;;5.21;96.48;95743.97;5014846;28;20953;-79
2022/03/17 05:43:20;;;;;;;20.47;13.87;;;;;;;5.15;96.45;95750.28;5033215;28;20512;-80
2022/03/17 05:45:47;;;;;;;18.50;13.60;;;;;;;5.00;96.90;95758.03;5032952;28;20450;-79
2022/03/17 05:48:14;;;;;;;16.40;12.80;;;;;;;4.93;97.80;95765.28;5032959;28;20454;-79
2022/03/17 05:50:45;;;;;;;19.40;13.63;;;;;;;4.88;97.93;95770.69;5033360;28;20454;-78
2022/03/17 05:53:12;;;;;;;15.03;11.20;;;;;;;4.81;97.59;95779.69;5014492;28;20482;-79
2022/03/17 05:55:39;;;;;;;18.23;14.43;;;;;;;4.80;98.04;95784.97;5032833;28;20453;-79
2022/03/17 05:58:07;;;;;;;16.20;12.10;;;;;;;4.84;97.85;95779.56;5033430;28;20761;-79
2022/03/17 06:00:36;;;;;;;15.47;11.53;;;;;;;4.99;97.96;95793.59;5032755;28;20453;-78
2022/03/17 06:03:04;;;;;;;17.03;12.20;;;;;;;4.98;98.66;95792.75;5032831;28;20455;-79
2022/03/17 06:05:31;;;;;;;23.20;12.87;;;;;;;5.04;97.52;95794.19;4998235;28;21384;-79
2022/03/17 06:08:00;;;;;;;16.80;12.50;;;;;;;5.01;98.46;95799.56;5033464;28;20446;-79
2022/03/17 06:10:28;;;;;;;18.43;13.20;;;;;;;5.02;97.61;95797.78;5033240;28;20435;-78
2022/03/17 06:12:56;;;;;;;17.93;11.80;;;;;;;5.02;98.44;95803.84;5015103;28;20973;-79
2022/03/17 06:15:24;;;;;;;16.47;12.30;;;;;;;4.98;98.49;95799.72;5035253;28;20790;-79
2022/03/17 06:17:54;;;;;;;13.20;9.50;;;;;;;5.00;98.02;95799.63;5036827;28;20442;-80
2022/03/17 06:20:22;;;;;;;10.87;8.80;;;;;;;5.00;97.48;95803.06;5037158;28;20441;-79
2022/03/17 06:22:51;;;;;;;14.27;11.30;;;;;;;5.10;97.82;95813.88;5037150;28;20474;-79
2022/03/17 06:25:20;;;;;;;19.20;12.87;;;;;;;5.12;97.68;95814.63;5037029;28;20445;-80
2022/03/17 06:27:48;;;;;;;19.43;15.20;;;;;;;5.07;98.16;95811.41;5037440;28;20453;-79
2022/03/17 06:30:16;;;;;;;24.77;16.03;;;;;;;5.06;97.98;95825.34;5036626;28;20433;-79
2022/03/17 06:32:44;;;;;;;14.53;11.20;;;;;;;5.08;98.02;95821.75;5036752;28;20482;-79
2022/03/17 06:35:17;;;;;;;14.57;12.03;;;;;;;5.03;98.61;95812.47;5036723;28;20930;-79
2022/03/17 06:37:44;;;;;;;29.07;17.30;;;;;;;4.99;97.99;95824.78;5018541;28;21291;-79
2022/03/17 06:40:12;;;;;;;25.37;18.70;;;;;;;4.92;98.81;95832.06;5018407;28;20442;-79
2022/03/17 06:46:08;;;;;;;15.63;12.50;;;;;;;5.06;98.42;95831.38;5036498;28;20437;-79
2022/03/17 06:48:35;;;;;;;15.30;11.93;;;;;;;5.00;97.96;95833.44;5036622;28;20441;-79
2022/03/17 06:51:03;;;;;;;18.00;11.93;;;;;;;5.04;98.83;95841.03;5036137;28;20483;-79
2022/03/17 06:53:30;;;;;;;16.50;12.87;;;;;;;5.09;98.40;95838.19;5036394;28;20481;-79
2022/03/17 06:55:57;;;;;;;17.57;14.07;;;;;;;5.11;98.06;95841.56;5036195;28;20454;-79
2022/03/17 06:58:24;;;;;;;19.90;12.87;;;;;;;5.08;98.11;95847.75;5036581;28;20431;-79
2022/03/17 07:00:51;;;;;;;17.40;12.03;;;;;;;5.22;98.27;95850.56;5036310;28;20809;-78
2022/03/17 07:03:17;;;;;;;15.20;10.40;;;;;;;5.26;98.77;95851.25;5002080;28;20449;-79
2022/03/17 07:05:44;;;;;;;13.13;9.60;;;;;;;5.23;96.93;95862.66;5035961;28;20949;-79
2022/03/17 07:08:13;;;;;;;13.63;10.60;;;;;;;5.21;97.37;95861.03;5035934;28;20956;-79
2022/03/17 07:10:39;;;;;;;12.37;10.63;;;;;;;5.08;97.39;95858.16;5001651;28;20435;-79
2022/03/17 07:13:06;;;;;;;14.70;10.73;;;;;;;4.97;97.80;95857.84;5035756;28;20466;-79
2022/03/17 07:15:34;;;;;;;12.73;10.93;;;;;;;4.94;98.74;95874.44;5036342;28;20828;-80
2022/03/17 07:18:01;;;;;;;15.60;10.43;;;;;;;4.95;99.94;95876.13;5017728;28;20478;-77
2022/03/17 07:20:28;;;;;;;13.67;10.93;;;;;;;4.97;99.42;95878.66;5001331;28;20461;-79
2022/03/17 07:22:54;;;;;;;21.90;11.10;;;;;;;4.95;100.00;95872.69;5035562;28;20485;-78
2022/03/17 07:25:24;;;;;;;20.07;12.40;;;;;;;4.98;100.00;95873.38;5035634;28;20457;-79
2022/03/17 07:27:51;;;;;;;17.47;12.47;;;;;;;4.93;100.00;95872.75;5035660;28;20478;-79
2022/03/17 07:30:20;;;;;;;16.30;13.97;;;;;;;4.83;100.00;95881.03;5035752;28;20521;-78
2022/03/17 07:32:48;;;;;;;43.57;27.50;;;;;;;4.74;100.00;95879.72;5034613;28;20451;-79
2022/03/17 07:35:16;;;;;;;27.03;20.10;;;;;;;4.73;100.00;95882.38;5034467;28;20457;-79
2022/03/17 07:37:43;;;;;;;26.50;18.17;;;;;;;4.77;100.00;95887.38;5034095;28;20458;-80
2022/03/17 07:40:11;;;;;;;26.73;16.20;;;;;;;4.79;100.00;95893.34;5034191;28;20449;-79
2022/03/17 07:42:39;;;;;;;20.57;15.57;;;;;;;4.90;100.00;95891.06;5015261;28;20446;-80
2022/03/17 07:45:07;;;;;;;15.60;11.70;;;;;;;4.95;100.00;95891.72;5033961;28;20971;-79
2022/03/17 07:47:34;;;;;;;18.97;13.67;;;;;;;4.98;100.00;95894.19;5034845;28;20445;-79
2022/03/17 07:50:04;;;;;;;21.17;15.50;;;;;;;4.98;100.00;95888.97;5035240;28;20435;-79
2022/03/17 07:52:31;;;;;;;17.93;14.47;;;;;;;5.11;100.00;95888.38;5035184;28;20443;-80
2022/03/17 07:54:58;;;;;;;21.47;13.53;;;;;;;5.23;100.00;95895.63;5035044;28;20497;-78
2022/03/17 07:57:25;;;;;;;38.57;20.23;;;;;;;5.37;100.00;95895.78;5035566;28;20439;-79
2022/03/17 07:59:53;;;;;;;19.10;15.27;;;;;;;5.51;100.00;95895.97;5035324;28;20525;-79
2022/03/17 08:02:20;;;;;;;25.10;16.37;;;;;;;5.68;100.00;95896.91;5035059;28;20434;-79
2022/03/17 08:04:50;;;;;;;21.13;16.20;;;;;;;5.82;99.93;95897.91;5035338;28;20446;-80
2022/03/17 08:07:17;;;;;;;18.90;14.60;;;;;;;5.82;98.28;95891.88;5034838;28;20442;-79
2022/03/17 08:09:45;;;;;;;21.67;14.20;;;;;;;5.98;98.06;95902.38;5034563;28;20453;-80
2022/03/17 08:12:12;;;;;;;24.63;15.87;;;;;;;6.05;97.15;95903.72;5034930;28;20447;-79
2022/03/17 08:14:39;;;;;;;23.80;17.50;;;;;;;6.10;95.78;95902.59;5000515;28;20479;-79
2022/03/17 08:17:09;;;;;;;27.83;16.97;;;;;;;6.18;95.39;95903.03;5034966;28;20454;-79
2022/03/17 08:19:36;;;;;;;30.67;17.07;;;;;;;6.18;96.00;95897.00;5034728;28;20430;-79
2022/03/17 08:22:03;;;;;;;24.20;17.17;;;;;;;6.33;95.78;95903.16;5034981;28;20656;-79
2022/03/17 08:24:30;;;;;;;29.17;18.60;;;;;;;6.35;95.01;95903.91;5034601;28;20445;-79
2022/03/17 08:30:19;;;;;;;24.13;17.17;;;;;;;6.49;94.18;95911.88;5034473;28;20430;-79
2022/03/17 08:32:48;;;;;;;21.73;15.80;;;;;;;6.54;93.95;95912.47;5034567;28;20431;-79
2022/03/17 08:35:17;;;;;;;19.17;15.30;;;;;;;6.50;93.22;95909.19;5034771;28;20588;-79
2022/03/17 08:37:46;;;;;;;20.63;14.07;;;;;;;6.50;93.71;95906.59;5034117;28;20438;-79
2022/03/17 08:40:14;;;;;;;19.00;13.70;;;;;;;6.53;93.24;95900.38;5034334;28;20806;-79
2022/03/17 08:42:42;;;;;;;17.93;14.20;;;;;;;6.47;94.01;95905.91;5034493;28;20431;-79
2022/03/17 08:58:00;;;;;;;33.60;16.17;;;;;;;6.54;92.17;95902.06;5034189;28;20446;-79
2022/03/17 09:00:27;;;;;;;15.97;12.57;;;;;;;6.66;93.32;95908.41;5033783;28;20442;-80
2022/03/17 09:02:55;;;;;;;17.37;12.57;;;;;;;6.74;92.57;95912.28;5034274;28;20838;-79
2022/03/17 09:05:22;;;;;;;18.37;13.37;;;;;;;6.80;91.67;95909.34;5033494;28;20501;-79
2022/03/17 09:07:49;;;;;;;14.30;11.87;;;;;;;6.80;91.94;95914.56;5033323;28;20447;-79
2022/03/17 09:10:16;;;;;;;15.93;11.70;;;;;;;6.88;91.14;95918.50;5033846;28;20451;-80
2022/03/17 09:12:43;;;;;;;17.47;12.47;;;;;;;6.90;90.77;95911.44;5033783;28;20443;-79
2022/03/17 09:15:13;;;;;;;18.40;13.20;;;;;;;6.98;90.50;95928.38;5033499;28;20984;-79
2022/03/17 09:17:42;;;;;;;16.43;12.33;;;;;;;7.05;91.39;95923.66;5033692;28;20930;-79
2022/03/17 09:20:15;;;;;;;16.43;12.30;;;;;;;7.19;91.89;95931.56;5033874;28;20493;-81
2022/03/17 09:33:51;;;;;;;17.70;12.00;;;;;;;7.19;89.01;95951.63;5010518;28;21056;-79
2022/03/17 09:36:19;;;;;;;15.80;13.00;;;;;;;7.19;89.24;95951.63;5033593;28;20442;-79
2022/03/17 09:39:39;;;;;;;17.93;13.70;;;;;;;7.25;90.72;95954.75;5033199;28;20542;-79
2022/03/17 09:41:35;;;;;;;18.63;13.30;;;;;;;7.28;89.62;95951.97;5033347;28;20857;-79
2022/03/17 09:44:03;;;;;;;13.60;11.03;;;;;;;7.26;89.04;95956.44;4998899;28;20435;-79
2022/03/17 09:46:31;;;;;;;15.40;11.57;;;;;;;7.17;86.61;95959.53;5007460;28;20442;-79
2022/03/17 09:49:01;;;;;;;14.37;12.20;;;;;;;6.96;89.00;95960.72;5051194;28;20442;-79
2022/03/17 09:51:29;;;;;;;11.33;8.90;;;;;;;6.76;87.44;95965.19;5052508;28;20912;-80
2022/03/17 09:54:00;;;;;;;12.33;11.00;;;;;;;6.60;88.23;95969.53;5053414;28;20470;-80
2022/03/17 09:56:28;;;;;;;12.53;8.80;;;;;;;6.20;90.88;95968.13;5053524;28;20433;-79
2022/03/17 09:58:56;;;;;;;10.23;8.10;;;;;;;6.01;91.10;95973.41;5053082;28;20519;-79
2022/03/17 10:01:25;;;;;;;8.33;7.07;;;;;;;5.86;92.33;95972.38;5052884;28;20812;-80
2022/03/17 10:03:51;;;;;;;9.07;5.70;;;;;;;5.14;94.66;95963.69;5053610;28;20936;-80
2022/03/17 10:06:21;;;;;;;10.03;8.53;;;;;;;5.20;96.42;95968.59;5052910;28;20441;-79
2022/03/17 10:08:49;;;;;;;10.13;8.77;;;;;;;4.96;97.38;95968.84;5053078;28;20437;-80
2022/03/17 10:11:17;;;;;;;9.40;7.50;;;;;;;4.91;98.42;95970.78;5053175;28;20452;-80
2022/03/17 10:13:45;;;;;;;15.77;10.90;;;;;;;5.07;98.61;95976.13;5052821;28;20860;-79
2022/03/17 10:16:13;;;;;;;12.10;8.20;;;;;;;5.06;100.00;95979.66;5053568;28;20446;-79
2022/03/17 10:18:40;;;;;;;23.93;10.63;;;;;;;5.18;99.18;95978.22;5052709;28;20450;-79
2022/03/17 10:21:10;;;;;;;14.03;9.70;;;;;;;5.37;99.42;95979.06;5053066;28;20434;-78
2022/03/17 10:23:46;;;;;;;11.80;10.20;;;;;;;5.20;98.26;95986.81;5053161;28;20430;-80
2022/03/17 10:26:31;;;;;;;13.17;8.07;;;;;;;5.28;97.74;95980.34;5052602;28;20437;-79
2022/03/17 10:29:05;;;;;;;12.07;9.83;;;;;;;5.39;97.03;95968.59;5052416;28;20441;-79
2022/03/17 10:31:31;;;;;;;14.77;8.30;;;;;;;5.35;96.63;95980.91;5052687;28;20441;-80
2022/03/17 10:33:58;;;;;;;10.30;7.30;;;;;;;5.22;96.23;95970.25;5052786;28;20485;-80
2022/03/17 10:36:31;;;;;;;7.00;6.37;;;;;;;5.22;97.56;95980.66;5052693;28;20452;-79
2022/03/17 10:38:59;;;;;;;8.40;6.90;;;;;;;5.16;97.26;95985.25;5052949;28;20441;-79
2022/03/17 10:41:26;;;;;;;7.63;6.83;;;;;;;5.08;97.43;95983.03;5052507;28;20442;-79
2022/03/17 10:44:00;;;;;;;11.00;9.93;;;;;;;5.30;96.44;95977.69;5052909;28;20434;-79
2022/03/17 10:46:27;;;;;;;9.77;8.77;;;;;;;5.31;96.27;95976.75;5052849;28;20496;-79
2022/03/17 10:48:55;;;;;;;9.03;8.10;;;;;;;5.39;97.11;95987.66;5052884;28;20446;-78
2022/03/17 10:51:33;;;;;;;12.47;8.37;;;;;;;5.59;96.52;95984.97;5052863;28;20441;-79
2022/03/17 10:54:09;;;;;;;12.10;10.03;;;;;;;5.75;96.32;95985.06;5053512;28;20497;-79
2022/03/17 10:56:39;;;;;;;12.47;11.17;;;;;;;5.89;95.59;95981.78;5052620;28;20440;-79
2022/03/17 10:59:07;;;;;;;9.50;7.90;;;;;;;5.93;93.22;95987.72;5052646;28;20425;-80
2022/03/17 11:01:39;;;;;;;10.40;9.33;;;;;;;6.03;93.27;95984.56;5054765;28;20430;-80
2022/03/17 11:04:06;;;;;;;15.13;8.73;;;;;;;6.14;93.44;95991.88;5055917;28;20465;-80
2022/03/17 11:06:34;;;;;;;9.93;8.83;;;;;;;6.21;92.83;95986.28;5056027;28;20417;-80
2022/03/17 11:12:26;;;;;;;8.50;7.40;;;;;;;6.02;90.40;95985.50;5013631;28;20442;-80
2022/03/17 11:14:54;;;;;;;12.57;9.67;;;;;;;6.04;90.72;95990.63;5013478;28;20491;-79
2022/03/17 11:17:26;;;;;;;21.23;16.33;;;;;;;5.73;92.53;95981.69;5014265;28;20498;-79
2022/03/17 11:19:54;;;;;;;9.47;7.73;;;;;;;5.46;91.93;95983.84;5014150;28;20510;-80
2022/03/17 11:22:23;;;;;;;7.37;6.63;;;;;;;5.17;93.85;95981.75;5014296;28;20446;-79
2022/03/17 11:25:20;;;;;;;6.93;6.33;;;;;;;5.00;94.26;95984.28;5013852;28;20476;-80
2022/03/17 11:34:49;;;;;;;11.47;8.70;;;;;;;5.23;95.63;95981.50;5033483;28;20617;-80
2022/03/17 11:37:22;;;;;;;10.20;7.53;;;;;;;5.32;94.87;95982.81;5035930;28;20426;-80
2022/03/17 11:39:51;;;;;;;7.67;6.80;;;;;;;5.37;93.34;95981.69;5001245;28;20452;-80
2022/03/17 11:42:35;;;;;;;12.30;9.90;;;;;;;5.38;94.82;95969.50;5036080;28;20454;-80
2022/03/17 11:45:04;;;;;;;7.60;6.63;;;;;;;4.96;93.78;95968.00;4961715;28;20452;-80
2022/03/17 11:47:36;;;;;;;9.73;8.30;;;;;;;5.26;95.54;95970.94;4993995;28;20448;-80
2022/03/17 11:50:26;;;;;;;40.63;24.13;;;;;;;5.22;95.31;95967.63;4993837;28;20794;-80
2022/03/17 11:52:57;;;;;;;24.90;17.30;;;;;;;5.27;95.73;95957.00;4994623;28;20457;-80
2022/03/17 11:55:38;;;;;;;8.33;7.53;;;;;;;4.99;93.55;95967.84;4993565;28;20508;-80
2022/03/17 11:58:25;;;;;;;11.03;8.13;;;;;;;5.08;96.37;95964.81;4994147;28;20508;-79
2022/03/17 12:00:54;;;;;;;19.90;16.77;;;;;;;5.11;96.82;95961.22;5006530;28;20432;-79
2022/03/17 12:03:30;;;;;;;12.63;9.60;;;;;;;5.23;96.71;95965.88;5013213;28;20456;-79
2022/03/17 12:06:10;;;;;;;9.83;7.67;;;;;;;5.34;95.88;95967.97;5013099;28;20427;-78
2022/03/17 12:08:38;;;;;;;11.77;8.53;;;;;;;5.26;93.94;95965.72;5013170;28;20446;-79
2022/03/17 12:14:28;;;;;;;19.13;12.40;;;;;;;5.34;94.59;95973.16;5011779;28;20525;-79
2022/03/17 12:16:56;;;;;;;14.00;10.30;;;;;;;5.17;94.55;95984.34;4980081;28;20936;-79
2022/03/17 12:19:34;;;;;;;13.13;9.07;;;;;;;5.00;94.80;95979.09;5012795;28;20446;-79
2022/03/17 12:22:13;;;;;;;9.97;8.40;;;;;;;5.14;94.69;95987.09;5028930;28;20529;-79
2022/03/17 12:24:45;;;;;;;11.23;9.80;;;;;;;5.06;95.45;95984.00;5054645;28;20426;-79
2022/03/17 12:27:15;;;;;;;13.63;9.57;;;;;;;4.99;94.21;95983.44;5050312;28;20436;-80
2022/03/17 12:29:43;;;;;;;10.87;8.57;;;;;;;4.96;95.60;95974.03;5054638;28;20454;-80
2022/03/17 12:32:11;;;;;;;10.40;7.43;;;;;;;5.00;94.40;95982.53;5054205;28;20446;-79
2022/03/17 12:34:39;;;;;;;8.57;6.80;;;;;;;4.87;94.49;95982.22;5054518;28;20489;-81
2022/03/17 12:37:09;;;;;;;11.03;8.87;;;;;;;4.99;94.67;95983.44;5054266;28;20438;-81
2022/03/17 12:39:37;;;;;;;8.37;7.40;;;;;;;4.98;94.10;95981.75;5054426;28;20446;-80
2022/03/17 12:42:16;;;;;;;8.00;6.53;;;;;;;5.06;94.90;95992.66;5054473;28;20444;-80
2022/03/17 12:45:06;;;;;;;15.70;11.67;;;;;;;4.94;94.98;95995.81;5054149;28;20975;-81
2022/03/17 12:47:35;;;;;;;11.67;8.00;;;;;;;4.91;95.41;95985.53;5015681;28;20446;-81
2022/03/17 12:50:06;;;;;;;16.10;9.33;;;;;;;4.86;96.42;96008.31;5034966;28;20430;-80
2022/03/17 12:52:36;;;;;;;12.33;8.50;;;;;;;4.74;96.88;95998.47;5034060;28;20533;-80
2022/03/17 12:55:05;;;;;;;15.67;10.00;;;;;;;4.34;98.86;95995.84;5033935;28;20482;-80
2022/03/17 12:57:33;;;;;;;17.70;10.77;;;;;;;4.41;99.35;95992.97;5043430;28;20890;-81
2022/03/17 13:00:01;;;;;;;12.70;10.33;;;;;;;4.43;99.88;95980.75;5053999;28;20445;-81
2022/03/17 13:02:28;;;;;;;14.23;10.67;;;;;;;4.63;99.09;95998.94;5053650;28;20940;-79